sensor_id;sensor_type;location;lat;lon;timestamp;P1;durP1;ratioP1;P2;durP2;ratioP2
69419;SDS011;71621;52.030;113.516;2023-09-07T00:01:33;17.10;;;7.27;;
69419;SDS011;71621;52.030;113.516;2023-09-07T00:04:38;13.95;;;6.63;;
69419;SDS011;71621;52.030;113.516;2023-09-07T00:07:43;13.35;;;6.55;;
69419;SDS011;71621;52.030;113.516;2023-09-07T00:10:47;12.23;;;6.90;;
69419;SDS011;71621;52.030;113.516;2023-09-07T00:13:50;11.47;;;6.07;;
69419;SDS011;71621;52.030;113.516;2023-09-07T00:16:54;12.57;;;6.13;;
69419;SDS011;71621;52.030;113.516;2023-09-07T00:19:57;12.65;;;6.35;;
69419;SDS011;71621;52.030;113.516;2023-09-07T00:23:01;11.10;;;6.00;;
69419;SDS011;71621;52.030;113.516;2023-09-07T00:26:05;15.48;;;5.80;;
69419;SDS011;71621;52.030;113.516;2023-09-07T00:29:10;10.33;;;5.53;;
69419;SDS011;71621;52.030;113.516;2023-09-07T00:32:14;10.43;;;5.47;;
69419;SDS011;71621;52.030;113.516;2023-09-07T00:35:18;10.52;;;4.90;;
69419;SDS011;71621;52.030;113.516;2023-09-07T00:38:21;8.98;;;5.15;;
69419;SDS011;71621;52.030;113.516;2023-09-07T00:41:25;22.48;;;9.93;;
69419;SDS011;71621;52.030;113.516;2023-09-07T00:44:29;52.23;;;19.57;;
69419;SDS011;71621;52.030;113.516;2023-09-07T00:47:33;14.33;;;6.80;;
69419;SDS011;71621;52.030;113.516;2023-09-07T00:50:39;9.60;;;4.80;;
69419;SDS011;71621;52.030;113.516;2023-09-07T00:53:43;9.68;;;4.60;;
69419;SDS011;71621;52.030;113.516;2023-09-07T00:56:47;10.98;;;4.25;;
69419;SDS011;71621;52.030;113.516;2023-09-07T00:59:51;7.80;;;4.57;;
69419;SDS011;71621;52.030;113.516;2023-09-07T01:02:55;11.57;;;5.13;;
69419;SDS011;71621;52.030;113.516;2023-09-07T01:06:03;10.70;;;5.07;;
69419;SDS011;71621;52.030;113.516;2023-09-07T01:09:17;9.77;;;4.75;;
69419;SDS011;71621;52.030;113.516;2023-09-07T01:12:24;9.73;;;5.18;;
69419;SDS011;71621;52.030;113.516;2023-09-07T01:15:27;8.53;;;4.87;;
69419;SDS011;71621;52.030;113.516;2023-09-07T01:18:32;10.23;;;5.63;;
69419;SDS011;71621;52.030;113.516;2023-09-07T01:21:37;12.05;;;6.45;;
69419;SDS011;71621;52.030;113.516;2023-09-07T01:24:42;12.70;;;5.80;;
69419;SDS011;71621;52.030;113.516;2023-09-07T01:27:47;15.10;;;5.90;;
69419;SDS011;71621;52.030;113.516;2023-09-07T01:30:52;9.97;;;4.93;;
69419;SDS011;71621;52.030;113.516;2023-09-07T01:33:56;9.50;;;4.20;;
69419;SDS011;71621;52.030;113.516;2023-09-07T01:37:00;8.73;;;5.20;;
69419;SDS011;71621;52.030;113.516;2023-09-07T01:40:03;9.25;;;5.07;;
69419;SDS011;71621;52.030;113.516;2023-09-07T01:43:10;13.45;;;5.30;;
69419;SDS011;71621;52.030;113.516;2023-09-07T01:46:13;8.27;;;4.40;;
69419;SDS011;71621;52.030;113.516;2023-09-07T01:49:17;9.37;;;4.17;;
69419;SDS011;71621;52.030;113.516;2023-09-07T01:52:20;9.30;;;4.80;;
69419;SDS011;71621;52.030;113.516;2023-09-07T01:55:24;10.32;;;5.80;;
69419;SDS011;71621;52.030;113.516;2023-09-07T01:58:32;14.77;;;6.68;;
69419;SDS011;71621;52.030;113.516;2023-09-07T02:01:37;9.93;;;5.60;;
69419;SDS011;71621;52.030;113.516;2023-09-07T02:04:41;12.97;;;5.93;;
69419;SDS011;71621;52.030;113.516;2023-09-07T02:07:49;9.82;;;5.80;;
69419;SDS011;71621;52.030;113.516;2023-09-07T02:10:52;10.50;;;5.50;;
69419;SDS011;71621;52.030;113.516;2023-09-07T02:13:56;12.15;;;5.95;;
69419;SDS011;71621;52.030;113.516;2023-09-07T02:16:59;9.43;;;4.80;;
69419;SDS011;71621;52.030;113.516;2023-09-07T02:20:03;8.73;;;4.47;;
69419;SDS011;71621;52.030;113.516;2023-09-07T02:23:16;9.20;;;4.20;;
69419;SDS011;71621;52.030;113.516;2023-09-07T02:26:21;6.85;;;4.30;;
69419;SDS011;71621;52.030;113.516;2023-09-07T02:29:25;8.20;;;4.60;;
69419;SDS011;71621;52.030;113.516;2023-09-07T02:32:30;8.30;;;3.90;;
69419;SDS011;71621;52.030;113.516;2023-09-07T02:35:36;8.23;;;4.00;;
69419;SDS011;71621;52.030;113.516;2023-09-07T02:38:40;7.60;;;4.00;;
69419;SDS011;71621;52.030;113.516;2023-09-07T02:41:44;7.03;;;3.95;;
69419;SDS011;71621;52.030;113.516;2023-09-07T02:44:49;7.75;;;4.53;;
69419;SDS011;71621;52.030;113.516;2023-09-07T02:47:53;9.47;;;4.53;;
69419;SDS011;71621;52.030;113.516;2023-09-07T02:50:56;23.47;;;11.60;;
69419;SDS011;71621;52.030;113.516;2023-09-07T02:54:02;10.73;;;5.28;;
69419;SDS011;71621;52.030;113.516;2023-09-07T02:57:07;32.85;;;15.88;;
69419;SDS011;71621;52.030;113.516;2023-09-07T03:00:10;35.58;;;17.20;;
69419;SDS011;71621;52.030;113.516;2023-09-07T03:03:15;19.90;;;11.33;;
69419;SDS011;71621;52.030;113.516;2023-09-07T03:06:20;14.53;;;8.80;;
69419;SDS011;71621;52.030;113.516;2023-09-07T03:09:26;7.55;;;4.13;;
69419;SDS011;71621;52.030;113.516;2023-09-07T03:12:30;6.68;;;2.90;;
69419;SDS011;71621;52.030;113.516;2023-09-07T03:15:34;5.10;;;2.80;;
69419;SDS011;71621;52.030;113.516;2023-09-07T03:18:41;6.13;;;3.00;;
69419;SDS011;71621;52.030;113.516;2023-09-07T03:21:46;4.97;;;2.90;;
69419;SDS011;71621;52.030;113.516;2023-09-07T03:24:52;4.45;;;2.60;;
69419;SDS011;71621;52.030;113.516;2023-09-07T03:27:56;4.15;;;2.33;;
69419;SDS011;71621;52.030;113.516;2023-09-07T03:31:00;4.57;;;2.38;;
69419;SDS011;71621;52.030;113.516;2023-09-07T03:34:03;4.97;;;2.07;;
69419;SDS011;71621;52.030;113.516;2023-09-07T03:37:08;4.87;;;1.83;;
69419;SDS011;71621;52.030;113.516;2023-09-07T03:40:14;3.42;;;1.50;;
69419;SDS011;71621;52.030;113.516;2023-09-07T03:43:18;4.40;;;1.60;;
69419;SDS011;71621;52.030;113.516;2023-09-07T03:46:22;4.70;;;2.13;;
69419;SDS011;71621;52.030;113.516;2023-09-07T03:49:26;3.30;;;1.30;;
69419;SDS011;71621;52.030;113.516;2023-09-07T03:52:30;4.67;;;1.37;;
69419;SDS011;71621;52.030;113.516;2023-09-07T03:55:40;3.63;;;1.58;;
69419;SDS011;71621;52.030;113.516;2023-09-07T03:58:46;4.25;;;1.17;;
69419;SDS011;71621;52.030;113.516;2023-09-07T04:01:50;3.10;;;1.25;;
69419;SDS011;71621;52.030;113.516;2023-09-07T04:04:54;3.70;;;1.10;;
69419;SDS011;71621;52.030;113.516;2023-09-07T04:08:00;4.60;;;1.43;;
69419;SDS011;71621;52.030;113.516;2023-09-07T04:11:05;4.10;;;1.38;;
69419;SDS011;71621;52.030;113.516;2023-09-07T04:14:09;3.40;;;1.55;;
69419;SDS011;71621;52.030;113.516;2023-09-07T04:17:13;7.70;;;1.15;;
69419;SDS011;71621;52.030;113.516;2023-09-07T04:20:17;4.13;;;0.97;;
69419;SDS011;71621;52.030;113.516;2023-09-07T04:23:20;6.40;;;1.10;;
69419;SDS011;71621;52.030;113.516;2023-09-07T04:26:24;4.35;;;0.93;;
69419;SDS011;71621;52.030;113.516;2023-09-07T04:29:28;3.20;;;0.50;;
69419;SDS011;71621;52.030;113.516;2023-09-07T04:32:32;4.75;;;1.10;;
69419;SDS011;71621;52.030;113.516;2023-09-07T04:35:36;3.30;;;1.10;;
69419;SDS011;71621;52.030;113.516;2023-09-07T04:38:42;4.87;;;1.10;;
69419;SDS011;71621;52.030;113.516;2023-09-07T04:41:45;3.58;;;1.40;;
69419;SDS011;71621;52.030;113.516;2023-09-07T04:44:50;3.55;;;0.90;;
69419;SDS011;71621;52.030;113.516;2023-09-07T04:47:53;3.25;;;0.80;;
69419;SDS011;71621;52.030;113.516;2023-09-07T04:50:58;2.93;;;0.70;;
69419;SDS011;71621;52.030;113.516;2023-09-07T04:54:05;3.30;;;0.77;;
69419;SDS011;71621;52.030;113.516;2023-09-07T04:57:09;3.13;;;0.80;;
69419;SDS011;71621;52.030;113.516;2023-09-07T05:00:13;3.58;;;0.95;;
69419;SDS011;71621;52.030;113.516;2023-09-07T05:03:18;4.35;;;0.70;;
69419;SDS011;71621;52.030;113.516;2023-09-07T05:06:21;2.50;;;0.60;;
69419;SDS011;71621;52.030;113.516;2023-09-07T05:09:29;5.40;;;0.80;;
69419;SDS011;71621;52.030;113.516;2023-09-07T05:12:34;3.90;;;0.60;;
69419;SDS011;71621;52.030;113.516;2023-09-07T05:15:46;2.58;;;0.75;;
69419;SDS011;71621;52.030;113.516;2023-09-07T05:18:53;3.47;;;0.88;;
69419;SDS011;71621;52.030;113.516;2023-09-07T05:21:58;2.97;;;0.77;;
69419;SDS011;71621;52.030;113.516;2023-09-07T05:25:01;3.43;;;1.10;;
69419;SDS011;71621;52.030;113.516;2023-09-07T05:28:05;4.00;;;0.88;;
69419;SDS011;71621;52.030;113.516;2023-09-07T05:31:09;3.22;;;0.95;;
69419;SDS011;71621;52.030;113.516;2023-09-07T05:34:13;3.95;;;1.08;;
69419;SDS011;71621;52.030;113.516;2023-09-07T05:37:16;4.97;;;0.83;;
69419;SDS011;71621;52.030;113.516;2023-09-07T05:40:20;3.57;;;0.90;;
69419;SDS011;71621;52.030;113.516;2023-09-07T05:43:24;5.13;;;1.15;;
69419;SDS011;71621;52.030;113.516;2023-09-07T05:46:28;2.78;;;0.60;;
69419;SDS011;71621;52.030;113.516;2023-09-07T05:49:32;3.08;;;0.77;;
69419;SDS011;71621;52.030;113.516;2023-09-07T05:52:35;3.63;;;0.60;;
69419;SDS011;71621;52.030;113.516;2023-09-07T05:55:39;2.40;;;0.70;;
69419;SDS011;71621;52.030;113.516;2023-09-07T05:58:43;2.53;;;0.60;;
69419;SDS011;71621;52.030;113.516;2023-09-07T06:01:47;2.47;;;0.80;;
69419;SDS011;71621;52.030;113.516;2023-09-07T06:04:50;2.30;;;0.60;;
69419;SDS011;71621;52.030;113.516;2023-09-07T06:07:54;2.03;;;0.60;;
69419;SDS011;71621;52.030;113.516;2023-09-07T06:10:58;2.60;;;0.80;;
69419;SDS011;71621;52.030;113.516;2023-09-07T06:14:02;4.05;;;0.40;;
69419;SDS011;71621;52.030;113.516;2023-09-07T06:17:06;2.33;;;0.50;;
69419;SDS011;71621;52.030;113.516;2023-09-07T06:20:10;1.90;;;0.50;;
69419;SDS011;71621;52.030;113.516;2023-09-07T06:23:14;3.00;;;0.50;;
69419;SDS011;71621;52.030;113.516;2023-09-07T06:26:18;2.80;;;0.40;;
69419;SDS011;71621;52.030;113.516;2023-09-07T06:29:22;1.75;;;0.35;;
69419;SDS011;71621;52.030;113.516;2023-09-07T06:32:25;3.83;;;1.00;;
69419;SDS011;71621;52.030;113.516;2023-09-07T06:35:29;3.78;;;1.25;;
69419;SDS011;71621;52.030;113.516;2023-09-07T06:38:33;3.07;;;1.10;;
69419;SDS011;71621;52.030;113.516;2023-09-07T06:41:37;3.33;;;0.60;;
69419;SDS011;71621;52.030;113.516;2023-09-07T06:44:41;3.25;;;0.52;;
69419;SDS011;71621;52.030;113.516;2023-09-07T06:47:45;4.75;;;0.55;;
69419;SDS011;71621;52.030;113.516;2023-09-07T06:50:54;3.35;;;0.70;;
69419;SDS011;71621;52.030;113.516;2023-09-07T06:54:04;2.87;;;0.60;;
69419;SDS011;71621;52.030;113.516;2023-09-07T06:57:08;3.70;;;0.80;;
69419;SDS011;71621;52.030;113.516;2023-09-07T07:00:12;4.05;;;0.90;;
69419;SDS011;71621;52.030;113.516;2023-09-07T07:03:17;2.38;;;0.73;;
69419;SDS011;71621;52.030;113.516;2023-09-07T07:06:21;1.40;;;0.35;;
69419;SDS011;71621;52.030;113.516;2023-09-07T07:09:25;2.33;;;0.60;;
69419;SDS011;71621;52.030;113.516;2023-09-07T07:12:28;3.23;;;0.63;;
69419;SDS011;71621;52.030;113.516;2023-09-07T07:15:32;2.33;;;0.40;;
69419;SDS011;71621;52.030;113.516;2023-09-07T07:18:37;2.45;;;0.50;;
69419;SDS011;71621;52.030;113.516;2023-09-07T07:21:46;3.95;;;0.60;;
69419;SDS011;71621;52.030;113.516;2023-09-07T07:24:50;1.73;;;0.37;;
69419;SDS011;71621;52.030;113.516;2023-09-07T07:27:55;1.70;;;0.40;;
69419;SDS011;71621;52.030;113.516;2023-09-07T07:30:59;2.90;;;0.40;;
69419;SDS011;71621;52.030;113.516;2023-09-07T07:34:17;3.30;;;0.55;;
69419;SDS011;71621;52.030;113.516;2023-09-07T07:37:22;2.78;;;0.52;;
69419;SDS011;71621;52.030;113.516;2023-09-07T07:40:26;3.60;;;0.70;;
69419;SDS011;71621;52.030;113.516;2023-09-07T07:43:30;1.63;;;0.33;;
69419;SDS011;71621;52.030;113.516;2023-09-07T07:46:37;2.28;;;0.50;;
69419;SDS011;71621;52.030;113.516;2023-09-07T07:49:41;2.45;;;0.70;;
69419;SDS011;71621;52.030;113.516;2023-09-07T07:52:45;3.67;;;0.65;;
69419;SDS011;71621;52.030;113.516;2023-09-07T07:55:48;2.50;;;0.50;;
69419;SDS011;71621;52.030;113.516;2023-09-07T07:58:55;2.37;;;0.63;;
69419;SDS011;71621;52.030;113.516;2023-09-07T08:01:58;2.83;;;0.60;;
69419;SDS011;71621;52.030;113.516;2023-09-07T08:05:03;5.65;;;0.90;;
69419;SDS011;71621;52.030;113.516;2023-09-07T08:08:08;5.93;;;1.50;;
69419;SDS011;71621;52.030;113.516;2023-09-07T08:11:12;5.37;;;1.00;;
69419;SDS011;71621;52.030;113.516;2023-09-07T08:14:16;4.63;;;1.03;;
69419;SDS011;71621;52.030;113.516;2023-09-07T08:17:20;6.50;;;1.10;;
69419;SDS011;71621;52.030;113.516;2023-09-07T08:20:25;4.88;;;0.75;;
69419;SDS011;71621;52.030;113.516;2023-09-07T08:23:29;3.00;;;0.93;;
69419;SDS011;71621;52.030;113.516;2023-09-07T08:26:33;2.80;;;0.73;;
69419;SDS011;71621;52.030;113.516;2023-09-07T08:29:39;3.93;;;0.67;;
69419;SDS011;71621;52.030;113.516;2023-09-07T08:32:42;3.63;;;1.10;;
69419;SDS011;71621;52.030;113.516;2023-09-07T08:35:52;3.30;;;0.88;;
69419;SDS011;71621;52.030;113.516;2023-09-07T08:38:56;3.67;;;1.10;;
69419;SDS011;71621;52.030;113.516;2023-09-07T08:42:02;3.20;;;1.27;;
69419;SDS011;71621;52.030;113.516;2023-09-07T08:45:08;4.13;;;1.10;;
69419;SDS011;71621;52.030;113.516;2023-09-07T08:48:13;5.75;;;1.75;;
69419;SDS011;71621;52.030;113.516;2023-09-07T08:51:20;5.13;;;1.95;;
69419;SDS011;71621;52.030;113.516;2023-09-07T08:54:26;6.28;;;1.85;;
69419;SDS011;71621;52.030;113.516;2023-09-07T08:57:30;4.13;;;1.67;;
69419;SDS011;71621;52.030;113.516;2023-09-07T09:00:35;4.63;;;1.70;;
69419;SDS011;71621;52.030;113.516;2023-09-07T09:03:39;3.78;;;1.48;;
69419;SDS011;71621;52.030;113.516;2023-09-07T09:06:45;4.07;;;1.50;;
69419;SDS011;71621;52.030;113.516;2023-09-07T09:09:48;4.47;;;1.35;;
69419;SDS011;71621;52.030;113.516;2023-09-07T09:12:52;4.13;;;1.10;;
69419;SDS011;71621;52.030;113.516;2023-09-07T09:15:56;3.37;;;1.30;;
69419;SDS011;71621;52.030;113.516;2023-09-07T09:19:03;3.60;;;1.02;;
69419;SDS011;71621;52.030;113.516;2023-09-07T09:22:06;6.55;;;1.15;;
69419;SDS011;71621;52.030;113.516;2023-09-07T09:25:10;3.47;;;0.98;;
69419;SDS011;71621;52.030;113.516;2023-09-07T09:28:14;3.47;;;1.10;;
69419;SDS011;71621;52.030;113.516;2023-09-07T09:31:18;3.40;;;1.20;;
69419;SDS011;71621;52.030;113.516;2023-09-07T09:34:21;3.40;;;1.20;;
69419;SDS011;71621;52.030;113.516;2023-09-07T09:37:25;4.65;;;1.65;;
69419;SDS011;71621;52.030;113.516;2023-09-07T09:40:30;7.15;;;2.42;;
69419;SDS011;71621;52.030;113.516;2023-09-07T09:43:37;7.10;;;2.33;;
69419;SDS011;71621;52.030;113.516;2023-09-07T09:46:40;6.63;;;2.27;;
69419;SDS011;71621;52.030;113.516;2023-09-07T09:49:45;6.15;;;2.85;;
69419;SDS011;71621;52.030;113.516;2023-09-07T09:52:54;4.03;;;1.70;;
69419;SDS011;71621;52.030;113.516;2023-09-07T09:55:59;4.28;;;1.70;;
69419;SDS011;71621;52.030;113.516;2023-09-07T09:59:03;4.83;;;1.90;;
69419;SDS011;71621;52.030;113.516;2023-09-07T10:02:07;5.50;;;2.40;;
69419;SDS011;71621;52.030;113.516;2023-09-07T10:05:11;5.47;;;2.50;;
69419;SDS011;71621;52.030;113.516;2023-09-07T10:08:19;6.38;;;2.50;;
69419;SDS011;71621;52.030;113.516;2023-09-07T10:11:27;5.90;;;2.60;;
69419;SDS011;71621;52.030;113.516;2023-09-07T10:14:42;5.77;;;2.60;;
69419;SDS011;71621;52.030;113.516;2023-09-07T10:17:48;6.27;;;1.97;;
69419;SDS011;71621;52.030;113.516;2023-09-07T10:20:58;5.22;;;2.45;;
69419;SDS011;71621;52.030;113.516;2023-09-07T10:24:02;5.45;;;2.35;;
69419;SDS011;71621;52.030;113.516;2023-09-07T10:27:06;4.38;;;1.60;;
69419;SDS011;71621;52.030;113.516;2023-09-07T10:30:11;5.20;;;1.83;;
69419;SDS011;71621;52.030;113.516;2023-09-07T10:33:26;4.70;;;1.90;;
69419;SDS011;71621;52.030;113.516;2023-09-07T10:36:30;7.65;;;3.13;;
69419;SDS011;71621;52.030;113.516;2023-09-07T10:39:33;7.50;;;2.83;;
69419;SDS011;71621;52.030;113.516;2023-09-07T10:42:37;12.13;;;4.68;;
69419;SDS011;71621;52.030;113.516;2023-09-07T10:45:43;16.53;;;6.20;;
69419;SDS011;71621;52.030;113.516;2023-09-07T10:48:50;18.23;;;5.90;;
69419;SDS011;71621;52.030;113.516;2023-09-07T10:51:55;10.43;;;5.20;;
69419;SDS011;71621;52.030;113.516;2023-09-07T10:54:59;8.30;;;4.00;;
69419;SDS011;71621;52.030;113.516;2023-09-07T10:58:02;7.63;;;3.60;;
69419;SDS011;71621;52.030;113.516;2023-09-07T11:01:06;6.87;;;3.30;;
69419;SDS011;71621;52.030;113.516;2023-09-07T11:04:12;5.60;;;2.60;;
69419;SDS011;71621;52.030;113.516;2023-09-07T11:07:16;6.13;;;2.42;;
69419;SDS011;71621;52.030;113.516;2023-09-07T11:10:20;6.35;;;2.60;;
69419;SDS011;71621;52.030;113.516;2023-09-07T11:13:24;13.30;;;5.78;;
69419;SDS011;71621;52.030;113.516;2023-09-07T11:16:28;6.43;;;3.23;;
69419;SDS011;71621;52.030;113.516;2023-09-07T11:19:32;7.53;;;4.33;;
69419;SDS011;71621;52.030;113.516;2023-09-07T11:22:36;9.02;;;4.45;;
69419;SDS011;71621;52.030;113.516;2023-09-07T11:26:04;10.43;;;3.83;;
69419;SDS011;71621;52.030;113.516;2023-09-07T11:29:08;10.80;;;5.10;;
69419;SDS011;71621;52.030;113.516;2023-09-07T11:32:11;9.47;;;5.00;;
69419;SDS011;71621;52.030;113.516;2023-09-07T11:35:15;8.60;;;3.30;;
69419;SDS011;71621;52.030;113.516;2023-09-07T11:38:19;9.32;;;4.97;;
69419;SDS011;71621;52.030;113.516;2023-09-07T11:41:23;9.77;;;4.20;;
69419;SDS011;71621;52.030;113.516;2023-09-07T11:44:26;11.18;;;5.57;;
69419;SDS011;71621;52.030;113.516;2023-09-07T11:47:30;14.63;;;6.03;;
69419;SDS011;71621;52.030;113.516;2023-09-07T11:50:34;9.53;;;3.33;;
69419;SDS011;71621;52.030;113.516;2023-09-07T11:53:38;13.27;;;5.72;;
69419;SDS011;71621;52.030;113.516;2023-09-07T11:56:42;8.02;;;3.15;;
69419;SDS011;71621;52.030;113.516;2023-09-07T11:59:48;6.70;;;2.75;;
69419;SDS011;71621;52.030;113.516;2023-09-07T12:03:00;8.57;;;3.93;;
69419;SDS011;71621;52.030;113.516;2023-09-07T12:06:04;7.97;;;3.63;;
69419;SDS011;71621;52.030;113.516;2023-09-07T12:09:07;6.00;;;2.70;;
69419;SDS011;71621;52.030;113.516;2023-09-07T12:12:12;5.65;;;2.50;;
69419;SDS011;71621;52.030;113.516;2023-09-07T12:15:16;11.68;;;3.65;;
69419;SDS011;71621;52.030;113.516;2023-09-07T12:18:20;10.00;;;4.30;;
69419;SDS011;71621;52.030;113.516;2023-09-07T12:21:25;9.60;;;3.73;;
69419;SDS011;71621;52.030;113.516;2023-09-07T12:24:28;10.93;;;3.70;;
69419;SDS011;71621;52.030;113.516;2023-09-07T12:27:35;10.05;;;4.55;;
69419;SDS011;71621;52.030;113.516;2023-09-07T12:30:53;14.27;;;6.55;;
69419;SDS011;71621;52.030;113.516;2023-09-07T12:33:57;24.90;;;12.20;;
69419;SDS011;71621;52.030;113.516;2023-09-07T12:37:01;14.87;;;6.60;;
69419;SDS011;71621;52.030;113.516;2023-09-07T12:40:07;15.90;;;7.72;;
69419;SDS011;71621;52.030;113.516;2023-09-07T12:43:17;19.42;;;9.57;;
69419;SDS011;71621;52.030;113.516;2023-09-07T12:46:21;10.23;;;3.55;;
69419;SDS011;71621;52.030;113.516;2023-09-07T12:49:25;10.80;;;2.90;;
69419;SDS011;71621;52.030;113.516;2023-09-07T12:52:29;6.40;;;2.60;;
69419;SDS011;71621;52.030;113.516;2023-09-07T12:55:35;5.97;;;2.30;;
69419;SDS011;71621;52.030;113.516;2023-09-07T12:58:39;6.72;;;2.33;;
69419;SDS011;71621;52.030;113.516;2023-09-07T13:01:43;4.93;;;1.90;;
69419;SDS011;71621;52.030;113.516;2023-09-07T13:04:48;5.53;;;2.20;;
69419;SDS011;71621;52.030;113.516;2023-09-07T13:07:51;3.90;;;1.90;;
69419;SDS011;71621;52.030;113.516;2023-09-07T13:10:57;3.80;;;1.63;;
69419;SDS011;71621;52.030;113.516;2023-09-07T13:14:00;3.80;;;1.33;;
69419;SDS011;71621;52.030;113.516;2023-09-07T13:17:13;3.40;;;1.70;;
69419;SDS011;71621;52.030;113.516;2023-09-07T13:20:17;5.10;;;1.70;;
69419;SDS011;71621;52.030;113.516;2023-09-07T13:23:22;4.73;;;1.77;;
69419;SDS011;71621;52.030;113.516;2023-09-07T13:26:26;5.03;;;1.83;;
69419;SDS011;71621;52.030;113.516;2023-09-07T13:29:29;3.20;;;1.42;;
69419;SDS011;71621;52.030;113.516;2023-09-07T13:32:34;3.95;;;1.60;;
69419;SDS011;71621;52.030;113.516;2023-09-07T13:35:38;3.00;;;1.30;;
69419;SDS011;71621;52.030;113.516;2023-09-07T13:38:42;3.47;;;1.40;;
69419;SDS011;71621;52.030;113.516;2023-09-07T13:41:46;3.33;;;1.55;;
69419;SDS011;71621;52.030;113.516;2023-09-07T13:44:50;3.25;;;1.40;;
69419;SDS011;71621;52.030;113.516;2023-09-07T13:47:53;3.20;;;1.50;;
69419;SDS011;71621;52.030;113.516;2023-09-07T13:50:57;3.40;;;1.47;;
69419;SDS011;71621;52.030;113.516;2023-09-07T13:54:00;5.80;;;1.50;;
69419;SDS011;71621;52.030;113.516;2023-09-07T13:57:04;4.18;;;1.60;;
69419;SDS011;71621;52.030;113.516;2023-09-07T14:00:08;4.03;;;1.70;;
69419;SDS011;71621;52.030;113.516;2023-09-07T14:03:11;4.60;;;1.55;;
69419;SDS011;71621;52.030;113.516;2023-09-07T14:06:15;8.23;;;2.17;;
69419;SDS011;71621;52.030;113.516;2023-09-07T14:09:19;8.63;;;2.57;;
69419;SDS011;71621;52.030;113.516;2023-09-07T14:12:26;12.13;;;2.95;;
69419;SDS011;71621;52.030;113.516;2023-09-07T14:15:29;14.05;;;2.55;;
69419;SDS011;71621;52.030;113.516;2023-09-07T14:18:34;9.20;;;3.00;;
69419;SDS011;71621;52.030;113.516;2023-09-07T14:21:37;7.67;;;2.00;;
69419;SDS011;71621;52.030;113.516;2023-09-07T14:24:41;9.63;;;2.67;;
69419;SDS011;71621;52.030;113.516;2023-09-07T14:27:45;5.05;;;1.83;;
69419;SDS011;71621;52.030;113.516;2023-09-07T14:30:48;7.90;;;2.08;;
69419;SDS011;71621;52.030;113.516;2023-09-07T14:33:52;5.78;;;1.65;;
69419;SDS011;71621;52.030;113.516;2023-09-07T14:36:56;6.33;;;1.57;;
69419;SDS011;71621;52.030;113.516;2023-09-07T14:39:59;8.90;;;2.20;;
69419;SDS011;71621;52.030;113.516;2023-09-07T14:43:03;7.63;;;1.85;;
69419;SDS011;71621;52.030;113.516;2023-09-07T14:46:08;6.15;;;2.10;;
69419;SDS011;71621;52.030;113.516;2023-09-07T14:49:12;6.90;;;1.90;;
69419;SDS011;71621;52.030;113.516;2023-09-07T14:52:15;7.40;;;2.20;;
69419;SDS011;71621;52.030;113.516;2023-09-07T14:55:19;6.50;;;2.13;;
69419;SDS011;71621;52.030;113.516;2023-09-07T14:58:22;5.45;;;1.67;;
69419;SDS011;71621;52.030;113.516;2023-09-07T15:01:26;4.60;;;1.70;;
69419;SDS011;71621;52.030;113.516;2023-09-07T15:04:30;4.63;;;1.25;;
69419;SDS011;71621;52.030;113.516;2023-09-07T15:07:34;6.07;;;1.50;;
69419;SDS011;71621;52.030;113.516;2023-09-07T15:10:37;3.93;;;1.60;;
69419;SDS011;71621;52.030;113.516;2023-09-07T15:13:41;2.90;;;1.20;;
69419;SDS011;71621;52.030;113.516;2023-09-07T15:16:45;4.32;;;1.70;;
69419;SDS011;71621;52.030;113.516;2023-09-07T15:19:48;4.30;;;1.25;;
69419;SDS011;71621;52.030;113.516;2023-09-07T15:22:52;3.03;;;1.30;;
69419;SDS011;71621;52.030;113.516;2023-09-07T15:25:55;3.73;;;1.20;;
69419;SDS011;71621;52.030;113.516;2023-09-07T15:28:59;3.00;;;1.17;;
69419;SDS011;71621;52.030;113.516;2023-09-07T15:32:06;3.25;;;1.30;;
69419;SDS011;71621;52.030;113.516;2023-09-07T15:35:10;3.33;;;1.42;;
69419;SDS011;71621;52.030;113.516;2023-09-07T15:38:13;4.07;;;1.20;;
69419;SDS011;71621;52.030;113.516;2023-09-07T15:41:17;3.47;;;1.20;;
69419;SDS011;71621;52.030;113.516;2023-09-07T15:44:21;3.15;;;1.00;;
69419;SDS011;71621;52.030;113.516;2023-09-07T15:47:25;3.40;;;1.00;;
69419;SDS011;71621;52.030;113.516;2023-09-07T15:50:29;2.80;;;1.20;;
69419;SDS011;71621;52.030;113.516;2023-09-07T15:53:33;2.60;;;1.10;;
69419;SDS011;71621;52.030;113.516;2023-09-07T15:56:36;3.27;;;1.20;;
69419;SDS011;71621;52.030;113.516;2023-09-07T15:59:40;3.72;;;1.25;;
69419;SDS011;71621;52.030;113.516;2023-09-07T16:02:44;2.78;;;1.17;;
69419;SDS011;71621;52.030;113.516;2023-09-07T16:05:48;2.83;;;1.30;;
69419;SDS011;71621;52.030;113.516;2023-09-07T16:08:52;3.53;;;1.37;;
69419;SDS011;71621;52.030;113.516;2023-09-07T16:11:55;3.43;;;1.20;;
69419;SDS011;71621;52.030;113.516;2023-09-07T16:14:59;3.35;;;1.30;;
69419;SDS011;71621;52.030;113.516;2023-09-07T16:18:03;3.15;;;1.10;;
69419;SDS011;71621;52.030;113.516;2023-09-07T16:21:07;3.20;;;1.20;;
69419;SDS011;71621;52.030;113.516;2023-09-07T16:24:12;2.77;;;1.10;;
69419;SDS011;71621;52.030;113.516;2023-09-07T16:27:15;2.43;;;0.90;;
69419;SDS011;71621;52.030;113.516;2023-09-07T16:30:19;4.32;;;1.20;;
69419;SDS011;71621;52.030;113.516;2023-09-07T16:33:22;2.47;;;1.00;;
69419;SDS011;71621;52.030;113.516;2023-09-07T16:36:26;2.30;;;1.00;;
69419;SDS011;71621;52.030;113.516;2023-09-07T16:39:30;3.73;;;1.20;;
69419;SDS011;71621;52.030;113.516;2023-09-07T16:42:33;1.97;;;0.73;;
69419;SDS011;71621;52.030;113.516;2023-09-07T16:45:37;2.75;;;1.00;;
69419;SDS011;71621;52.030;113.516;2023-09-07T16:48:40;2.40;;;0.80;;
69419;SDS011;71621;52.030;113.516;2023-09-07T16:51:44;4.10;;;1.17;;
69419;SDS011;71621;52.030;113.516;2023-09-07T16:54:48;2.60;;;1.10;;
69419;SDS011;71621;52.030;113.516;2023-09-07T16:57:55;2.20;;;0.80;;
69419;SDS011;71621;52.030;113.516;2023-09-07T17:01:03;2.70;;;1.25;;
69419;SDS011;71621;52.030;113.516;2023-09-07T17:04:09;2.75;;;0.70;;
69419;SDS011;71621;52.030;113.516;2023-09-07T17:07:13;2.35;;;0.93;;
69419;SDS011;71621;52.030;113.516;2023-09-07T17:10:16;3.47;;;0.77;;
69419;SDS011;71621;52.030;113.516;2023-09-07T17:13:20;3.00;;;0.80;;
69419;SDS011;71621;52.030;113.516;2023-09-07T17:16:25;2.50;;;0.90;;
69419;SDS011;71621;52.030;113.516;2023-09-07T17:19:29;3.17;;;0.88;;
69419;SDS011;71621;52.030;113.516;2023-09-07T17:22:33;2.28;;;0.90;;
69419;SDS011;71621;52.030;113.516;2023-09-07T17:25:37;3.10;;;1.10;;
69419;SDS011;71621;52.030;113.516;2023-09-07T17:28:40;2.40;;;1.00;;
69419;SDS011;71621;52.030;113.516;2023-09-07T17:31:44;2.10;;;0.70;;
69419;SDS011;71621;52.030;113.516;2023-09-07T17:34:48;4.80;;;1.10;;
69419;SDS011;71621;52.030;113.516;2023-09-07T17:37:51;3.30;;;1.17;;
69419;SDS011;71621;52.030;113.516;2023-09-07T17:40:55;3.43;;;1.17;;
69419;SDS011;71621;52.030;113.516;2023-09-07T17:43:58;3.73;;;0.97;;
69419;SDS011;71621;52.030;113.516;2023-09-07T17:47:02;5.53;;;0.90;;
69419;SDS011;71621;52.030;113.516;2023-09-07T17:50:06;2.40;;;1.00;;
69419;SDS011;71621;52.030;113.516;2023-09-07T17:53:10;3.45;;;1.15;;
69419;SDS011;71621;52.030;113.516;2023-09-07T17:56:13;3.90;;;1.10;;